Time;durP1;ratioP1;P1;durP2;ratioP2;P2;SDS_P1;SDS_P2;PMS_P1;PMS_P2;Temp;Humidity;BMP_temperature;BMP_pressure;BME280_temperature;BME280_humidity;BME280_pressure;Samples;Min_cycle;Max_cycle;Signal;HPM_P1;HPM_P2
2021/12/14 00:02:58;;;;;;;9.00;5.10;;;9.90;99.90;;;;;;10448310;28;20454;-66
2021/12/14 00:08:01;;;;;;;11.65;5.65;;;9.90;99.90;;;;;;10429858;28;20032;-67
2021/12/14 00:18:42;;;;;;;7.45;4.90;;;9.30;99.90;;;;;;10426135;28;20055;-68
2021/12/14 00:29:02;;;;;;;;;;;9.90;99.90;;;;;;10446319;28;20025;-66
2021/12/14 00:34:05;;;;;;;9.98;5.20;;;9.90;99.90;;;;;;10445389;28;19912;-66
2021/12/14 00:39:09;;;;;;;8.98;5.45;;;9.90;99.90;;;;;;10453997;28;20031;-67
2021/12/14 00:44:10;;;;;;;9.90;5.57;;;9.90;99.90;;;;;;10453204;28;20119;-67
2021/12/14 00:49:13;;;;;;;10.50;5.38;;;9.90;99.90;;;;;;10452947;28;20033;-68
2021/12/14 00:54:16;;;;;;;10.32;5.68;;;9.90;99.90;;;;;;10453456;28;20048;-68
2021/12/14 00:59:19;;;;;;;9.75;5.53;;;9.90;99.90;;;;;;10452541;28;20013;-66
2021/12/14 01:04:34;;;;;;;9.27;5.35;;;9.90;99.90;;;;;;10453447;28;20036;-66
2021/12/14 01:09:38;;;;;;;8.88;5.05;;;9.90;99.90;;;;;;10453227;28;20029;-68
2021/12/14 01:14:59;;;;;;;12.07;6.22;;;9.90;99.90;;;;;;10451445;28;20063;-66
2021/12/14 01:20:00;;;;;;;11.45;6.28;;;9.90;99.90;;;;;;10451534;28;20065;-67
2021/12/14 01:25:13;;;;;;;9.73;5.68;;;9.90;99.90;;;;;;10451404;28;20044;-68
2021/12/14 01:30:27;;;;;;;10.18;6.00;;;9.90;99.90;;;;;;10452137;28;20249;-68
2021/12/14 01:35:32;;;;;;;13.88;6.40;;;9.90;99.90;;;;;;10451347;28;20077;-68
2021/12/14 01:40:53;;;;;;;10.57;5.95;;;9.90;99.90;;;;;;10451116;28;20474;-67
2021/12/14 01:45:56;;;;;;;12.07;6.45;;;9.90;99.90;;;;;;10448300;28;20064;-67
2021/12/14 01:51:00;;;;;;;10.68;6.13;;;9.90;99.90;;;;;;10444550;28;20022;-67
2021/12/14 01:56:06;;;;;;;10.20;6.85;;;9.90;99.90;;;;;;10449136;28;20045;-67
2021/12/14 02:01:15;;;;;;;10.85;6.10;;;9.90;99.90;;;;;;10440507;28;20120;-67
2021/12/14 02:06:19;;;;;;;12.97;6.83;;;9.90;99.90;;;;;;10447638;28;20032;-66
2021/12/14 02:11:20;;;;;;;12.05;6.63;;;9.90;99.90;;;;;;10438310;28;20263;-68
2021/12/14 02:16:22;;;;;;;11.50;6.13;;;9.90;99.90;;;;;;10448419;28;20021;-66
2021/12/14 02:21:24;;;;;;;11.80;6.45;;;9.90;99.90;;;;;;10448491;28;20445;-66
2021/12/14 02:26:33;;;;;;;12.80;6.15;;;9.90;99.90;;;;;;10448027;28;20237;-67
2021/12/14 02:31:37;;;;;;;12.13;6.60;;;9.90;99.90;;;;;;10447946;28;20037;-67
2021/12/14 02:36:41;;;;;;;13.32;6.78;;;9.90;99.90;;;;;;10430665;28;20040;-67
2021/12/14 02:41:46;;;;;;;10.15;6.30;;;9.90;99.90;;;;;;10447788;28;20029;-67
2021/12/14 02:46:51;;;;;;;11.70;6.38;;;9.90;99.90;;;;;;10447442;28;20052;-66
2021/12/14 02:52:03;;;;;;;12.43;6.50;;;9.90;99.90;;;;;;10447995;28;20013;-67
2021/12/14 02:57:23;;;;;;;12.32;6.78;;;9.90;99.90;;;;;;10447799;28;20472;-67
2021/12/14 03:02:31;;;;;;;11.57;6.38;;;9.90;99.90;;;;;;10447390;28;20029;-67
2021/12/14 03:07:40;;;;;;;14.10;7.45;;;9.90;99.90;;;;;;10447492;28;20436;-67
2021/12/14 03:12:47;;;;;;;11.55;6.13;;;10.70;99.90;;;;;;10446491;28;20017;-68
2021/12/14 03:17:51;;;;;;;13.50;7.15;;;9.90;99.90;;;;;;10446060;28;20040;-68
2021/12/14 03:23:02;;;;;;;14.05;7.63;;;9.90;99.90;;;;;;10446346;28;20021;-67
2021/12/14 03:28:03;;;;;;;12.70;7.13;;;9.90;99.90;;;;;;10446285;28;20114;-67
2021/12/14 03:33:17;;;;;;;15.18;7.03;;;9.90;99.90;;;;;;10445679;28;20387;-68
2021/12/14 03:38:37;;;;;;;16.63;7.78;;;9.90;99.90;;;;;;10445104;28;20029;-68
2021/12/14 03:43:41;;;;;;;13.32;6.82;;;9.90;99.90;;;;;;10434748;28;20025;-68
2021/12/14 03:48:42;;;;;;;16.60;7.30;;;10.00;99.90;;;;;;10444467;28;20028;-68
2021/12/14 03:53:42;;;;;;;14.63;8.38;;;9.80;99.90;;;;;;10445458;28;20033;-67
2021/12/14 03:58:43;;;;;;;14.63;7.50;;;9.80;99.90;;;;;;10444263;28;20124;-68
2021/12/14 04:03:47;;;;;;;19.13;7.53;;;9.90;99.90;;;;;;10434254;28;20028;-68
2021/12/14 04:08:49;;;;;;;13.32;7.57;;;9.90;99.90;;;;;;10430361;28;20503;-69
2021/12/14 04:13:53;;;;;;;15.75;8.10;;;9.80;99.90;;;;;;10446354;28;20045;-67
2021/12/14 04:18:57;;;;;;;16.48;8.05;;;10.40;99.90;;;;;;10444043;28;20524;-67
2021/12/14 04:23:57;;;;;;;16.05;7.97;;;9.90;99.90;;;;;;10443613;28;20228;-67
2021/12/14 04:28:59;;;;;;;16.70;8.82;;;9.80;99.90;;;;;;10443839;28;20029;-67
2021/12/14 04:34:00;;;;;;;16.63;8.95;;;9.80;99.90;;;;;;10441949;28;20045;-66
2021/12/14 04:55:08;;;;;;;15.95;7.55;;;9.80;99.90;;;;;;10438543;28;20036;-66
2021/12/14 05:00:15;;;;;;;15.20;8.23;;;9.80;99.90;;;;;;10435855;28;20029;-67
2021/12/14 05:05:25;;;;;;;18.10;8.50;;;9.80;99.90;;;;;;10433544;28;20136;-66
2021/12/14 05:10:26;;;;;;;18.98;9.70;;;9.80;99.90;;;;;;10442985;28;20031;-68
2021/12/14 05:15:27;;;;;;;18.67;8.40;;;10.40;99.90;;;;;;10442939;28;20516;-69
2021/12/14 05:20:28;;;;;;;19.25;9.23;;;9.80;99.90;;;;;;10443800;28;20064;-66
2021/12/14 05:25:29;;;;;;;17.65;8.77;;;9.80;99.90;;;;;;10450209;28;20040;-68
2021/12/14 05:30:40;;;;;;;17.98;8.95;;;9.80;99.90;;;;;;10449938;28;20391;-66
2021/12/14 05:35:42;;;;;;;20.55;9.35;;;9.80;99.90;;;;;;10449735;28;20107;-67
2021/12/14 05:45:54;;;;;;;17.10;8.95;;;9.80;99.90;;;;;;10441124;28;20029;-67
2021/12/14 05:51:06;;;;;;;20.67;9.98;;;9.80;99.90;;;;;;10449405;28;20092;-67
2021/12/14 05:56:17;;;;;;;20.05;9.40;;;9.80;99.90;;;;;;10451289;28;20144;-67
2021/12/14 06:01:22;;;;;;;19.02;10.13;;;9.80;99.90;;;;;;10445117;28;20372;-67
2021/12/14 06:06:29;;;;;;;20.38;10.50;;;9.80;99.90;;;;;;10449289;28;20039;-67
2021/12/14 06:11:31;;;;;;;19.40;9.25;;;9.80;99.90;;;;;;10448588;28;20178;-68
2021/12/14 06:16:35;;;;;;;21.23;10.35;;;9.80;99.90;;;;;;10448144;28;20041;-68
2021/12/14 06:21:36;;;;;;;17.63;10.13;;;9.80;99.90;;;;;;10440112;28;20116;-68
2021/12/14 06:26:44;;;;;;;17.90;8.93;;;9.80;99.90;;;;;;10447913;28;20037;-68
2021/12/14 06:31:46;;;;;;;19.50;9.97;;;9.70;99.90;;;;;;10447220;28;20472;-68
2021/12/14 06:36:52;;;;;;;19.77;10.05;;;9.70;99.90;;;;;;10447505;28;20320;-67
2021/12/14 06:42:04;;;;;;;17.45;9.85;;;9.80;99.90;;;;;;10446873;28;20029;-68
2021/12/14 06:47:05;;;;;;;22.10;10.38;;;9.70;99.90;;;;;;10444039;28;20078;-66
2021/12/14 06:52:07;;;;;;;23.77;10.90;;;9.70;99.90;;;;;;10445331;28;20013;-66
2021/12/14 06:57:07;;;;;;;20.33;10.15;;;9.80;99.90;;;;;;10435143;28;20049;-69
2021/12/14 07:02:10;;;;;;;21.90;10.60;;;9.80;99.90;;;;;;10443409;28;20098;-66
2021/12/14 07:07:12;;;;;;;22.55;10.50;;;9.80;99.90;;;;;;10445237;28;20057;-69
2021/12/14 07:12:22;;;;;;;22.42;10.73;;;9.80;99.90;;;;;;10446335;28;20014;-64
2021/12/14 07:17:31;;;;;;;22.25;11.13;;;9.80;99.90;;;;;;10445637;28;20091;-61
2021/12/14 07:22:47;;;;;;;24.38;11.57;;;9.80;99.90;;;;;;10445683;28;20024;-69
2021/12/14 07:27:49;;;;;;;22.55;11.40;;;9.80;99.90;;;;;;10446632;28;20094;-67
2021/12/14 07:32:55;;;;;;;23.33;10.35;;;9.80;99.90;;;;;;10437592;28;20105;-65
2021/12/14 07:38:00;;;;;;;24.52;11.75;;;9.70;99.90;;;;;;10410560;28;20132;-68
2021/12/14 07:43:13;;;;;;;23.20;10.75;;;9.80;99.90;;;;;;10439343;28;20099;-68
2021/12/14 07:48:14;;;;;;;21.67;11.35;;;9.70;99.90;;;;;;10420724;28;20040;-61
2021/12/14 07:53:43;;;;;;;25.08;11.35;;;9.70;99.90;;;;;;10431207;28;20025;-68
2021/12/14 07:58:47;;;;;;;25.58;12.18;;;9.70;99.90;;;;;;10433671;28;20139;-67
2021/12/14 08:03:58;;;;;;;22.63;11.63;;;9.70;99.90;;;;;;10415723;28;20025;-66
2021/12/14 08:08:59;;;;;;;24.80;12.35;;;9.80;99.90;;;;;;10418544;28;20041;-67
2021/12/14 08:14:10;;;;;;;21.77;10.93;;;9.70;99.90;;;;;;10424397;28;20033;-67
2021/12/14 08:19:37;;;;;;;23.25;10.98;;;9.80;99.90;;;;;;10425951;28;20063;-68
2021/12/14 08:24:38;;;;;;;24.38;11.75;;;9.80;99.90;;;;;;10462060;22;20045;-70
2021/12/14 08:29:39;;;;;;;23.45;11.32;;;9.80;99.90;;;;;;10483890;28;20388;-66
2021/12/14 08:34:45;;;;;;;24.50;11.90;;;9.80;99.90;;;;;;10474528;28;20028;-67
2021/12/14 08:39:50;;;;;;;22.80;11.15;;;9.80;99.90;;;;;;10477477;28;20059;-68
2021/12/14 08:44:55;;;;;;;22.75;10.65;;;9.80;99.90;;;;;;10483060;28;20069;-68
2021/12/14 08:49:58;;;;;;;24.08;11.57;;;9.80;99.90;;;;;;10469272;28;20021;-66
2021/12/14 08:55:01;;;;;;;25.27;11.95;;;9.80;99.90;;;;;;10520600;22;20515;-67
2021/12/14 09:00:13;;;;;;;22.38;11.45;;;9.80;99.90;;;;;;10422820;28;20372;-67
2021/12/14 09:05:23;;;;;;;23.98;11.05;;;9.80;99.90;;;;;;10437624;28;20379;-68
2021/12/14 09:10:28;;;;;;;22.88;11.30;;;9.80;99.90;;;;;;10428520;28;20024;-67
2021/12/14 09:15:43;;;;;;;24.27;11.88;;;10.90;99.90;;;;;;10428507;28;20037;-65
2021/12/14 09:20:57;;;;;;;22.42;11.43;;;9.80;99.90;;;;;;10425293;28;20013;-65
2021/12/14 09:25:58;;;;;;;24.00;11.60;;;9.80;99.90;;;;;;10423709;28;20122;-65
2021/12/14 09:31:04;;;;;;;23.77;11.75;;;9.80;99.90;;;;;;10425684;28;20236;-67
2021/12/14 09:36:11;;;;;;;21.70;10.60;;;9.90;99.90;;;;;;10424045;28;20517;-68
2021/12/14 09:41:15;;;;;;;23.95;11.68;;;9.80;99.90;;;;;;10435979;28;20029;-67
2021/12/14 09:46:18;;;;;;;24.55;11.52;;;9.80;99.90;;;;;;10444372;28;20100;-67
2021/12/14 09:51:26;;;;;;;20.95;10.48;;;9.90;99.90;;;;;;10427309;28;20292;-66
2021/12/14 09:56:32;;;;;;;20.85;10.60;;;9.50;99.90;;;;;;10428309;28;20132;-69
2021/12/14 10:01:40;;;;;;;20.83;10.55;;;9.90;99.90;;;;;;10435890;28;20041;-68
2021/12/14 10:06:43;;;;;;;23.58;10.70;;;9.90;99.90;;;;;;10424101;28;20041;-67
2021/12/14 10:16:56;;;;;;;24.27;11.88;;;9.90;99.90;;;;;;10446709;28;20040;-67
2021/12/14 10:22:04;;;;;;;21.67;11.13;;;9.90;99.90;;;;;;10435598;28;20025;-68
2021/12/14 10:27:12;;;;;;;18.25;9.73;;;9.90;99.90;;;;;;10410635;28;20036;-66
2021/12/14 10:32:24;;;;;;;17.35;9.43;;;9.90;99.90;;;;;;10431517;28;20029;-67
2021/12/14 10:37:39;;;;;;;20.35;9.20;;;9.90;99.90;;;;;;10432820;28;20037;-66
2021/12/14 10:43:04;;;;;;;18.83;9.48;;;9.90;99.90;;;;;;10442598;28;20096;-68
2021/12/14 10:48:01;;;;;;;18.02;9.88;;;9.90;99.90;;;;;;10415882;28;20355;-70
2021/12/14 10:53:04;;;;;;;20.38;10.45;;;9.90;99.90;;;;;;10426269;28;20383;-68
2021/12/14 10:58:07;;;;;;;23.60;11.63;;;9.90;99.90;;;;;;10436744;28;20064;-69
2021/12/14 11:03:13;;;;;;;19.17;9.80;;;9.90;99.90;;;;;;10438211;28;20113;-69
2021/12/14 11:14:05;;;;;;;21.38;10.85;;;10.00;99.90;;;;;;10409763;28;20033;-68
2021/12/14 11:19:06;;;;;;;20.73;9.80;;;9.90;99.90;;;;;;10431978;28;20090;-70
2021/12/14 11:24:07;;;;;;;19.02;9.88;;;9.90;99.90;;;;;;10432528;28;20029;-68
2021/12/14 11:29:13;;;;;;;19.88;10.18;;;9.90;99.90;;;;;;10430614;28;20043;-68
2021/12/14 11:34:26;;;;;;;20.38;9.55;;;9.90;99.90;;;;;;10434034;28;20064;-67
2021/12/14 11:39:31;;;;;;;19.77;9.88;;;9.90;99.90;;;;;;10426608;28;20266;-72
2021/12/14 11:44:39;;;;;;;18.25;8.70;;;10.00;99.90;;;;;;10420848;28;20017;-67
2021/12/14 11:50:06;;;;;;;20.83;10.55;;;10.00;99.90;;;;;;10431224;28;20025;-68
2021/12/14 11:55:16;;;;;;;20.08;9.85;;;10.00;99.90;;;;;;10432138;28;20072;-70
2021/12/14 12:00:22;;;;;;;20.45;10.18;;;10.00;99.90;;;;;;10413681;28;20525;-69
2021/12/14 12:05:30;;;;;;;18.27;9.07;;;10.00;99.90;;;;;;10410938;28;20393;-69
2021/12/14 12:10:45;;;;;;;17.50;8.93;;;10.00;99.90;;;;;;10436160;28;20028;-73
2021/12/14 12:15:47;;;;;;;19.67;9.13;;;10.00;99.90;;;;;;10425606;28;20037;-70
2021/12/14 12:20:50;;;;;;;20.40;10.02;;;10.00;99.90;;;;;;10425415;28;20056;-72
2021/12/14 12:26:08;;;;;;;17.38;8.75;;;10.00;99.90;;;;;;10423674;28;20030;-70
2021/12/14 12:31:16;;;;;;;16.65;8.80;;;10.00;99.90;;;;;;10433077;28;20021;-71
2021/12/14 12:36:28;;;;;;;18.08;8.88;;;10.00;99.90;;;;;;10434801;28;20029;-73
2021/12/14 12:41:41;;;;;;;15.32;8.20;;;10.00;99.90;;;;;;10417797;28;20083;-69
2021/12/14 12:46:45;;;;;;;17.50;8.57;;;10.00;99.90;;;;;;10421611;28;20169;-72
2021/12/14 12:51:59;;;;;;;15.75;8.45;;;10.00;99.90;;;;;;10440977;28;20029;-71
2021/12/14 12:57:15;;;;;;;18.35;8.68;;;10.00;99.90;;;;;;10426393;28;20045;-69
2021/12/14 13:02:30;;;;;;;15.45;8.20;;;10.00;99.90;;;;;;10424412;28;20698;-71
2021/12/14 13:07:56;;;;;;;14.95;8.00;;;10.00;99.90;;;;;;10432021;28;20108;-70
2021/12/14 13:13:25;;;;;;;16.30;8.40;;;10.00;99.90;;;;;;10414658;28;20181;-68
2021/12/14 13:18:31;;;;;;;17.05;8.38;;;10.00;99.90;;;;;;10386225;28;20049;-67
2021/12/14 13:24:01;;;;;;;19.58;8.45;;;10.00;99.90;;;;;;10411365;28;20384;-68
2021/12/14 13:29:11;;;;;;;15.10;7.97;;;10.00;99.90;;;;;;10397264;28;20103;-68
2021/12/14 13:34:19;;;;;;;18.33;8.40;;;10.00;99.90;;;;;;10432596;28;20036;-70
2021/12/14 13:39:21;;;;;;;15.68;7.80;;;10.00;99.90;;;;;;10426113;28;20538;-69
2021/12/14 13:44:21;;;;;;;16.00;8.50;;;10.00;99.90;;;;;;10438076;28;20427;-69
2021/12/14 13:49:22;;;;;;;14.45;7.93;;;10.00;99.90;;;;;;10432761;28;20017;-70
2021/12/14 13:54:24;;;;;;;14.20;8.43;;;10.00;99.90;;;;;;10425293;28;20045;-70
2021/12/14 13:59:25;;;;;;;14.38;7.38;;;10.00;99.90;;;;;;10440698;28;20037;-71
2021/12/14 14:04:27;;;;;;;13.70;7.50;;;10.00;99.90;;;;;;10422509;28;20044;-71
2021/12/14 14:09:29;;;;;;;16.60;8.80;;;10.00;99.90;;;;;;10439938;28;20079;-71
2021/12/14 14:14:38;;;;;;;15.18;7.88;;;10.00;99.90;;;;;;10432936;28;20443;-69
2021/12/14 14:19:48;;;;;;;16.13;8.38;;;10.00;99.90;;;;;;10430269;28;20413;-69
2021/12/14 14:25:17;;;;;;;15.60;8.10;;;10.00;99.90;;;;;;10421585;28;20021;-69
2021/12/14 14:30:24;;;;;;;13.43;7.60;;;10.00;99.90;;;;;;10440853;28;20069;-68
2021/12/14 14:35:51;;;;;;;16.45;8.73;;;10.00;99.90;;;;;;10414010;28;20381;-69
2021/12/14 14:40:58;;;;;;;15.48;8.07;;;10.00;99.90;;;;;;10443450;28;20475;-69
2021/12/14 14:45:59;;;;;;;15.13;7.93;;;9.90;99.90;;;;;;10429044;28;20064;-69
2021/12/14 14:51:00;;;;;;;15.82;7.78;;;10.00;99.90;;;;;;10446325;28;20450;-71
2021/12/14 14:56:01;;;;;;;16.30;8.82;;;10.00;99.90;;;;;;10425289;28;20049;-71
2021/12/14 15:01:12;;;;;;;15.63;8.30;;;10.00;99.90;;;;;;10439221;28;20089;-71
2021/12/14 15:06:19;;;;;;;12.40;8.02;;;10.00;99.90;;;;;;10433373;28;20037;-68
2021/12/14 15:11:29;;;;;;;13.57;7.43;;;10.00;99.90;;;;;;10427265;28;20060;-69
2021/12/14 15:16:44;;;;;;;15.23;8.25;;;10.00;99.90;;;;;;10437139;28;20383;-71
2021/12/14 15:21:51;;;;;;;15.05;8.27;;;10.00;99.90;;;;;;10430405;28;20108;-69
2021/12/14 15:27:09;;;;;;;16.30;8.15;;;10.00;99.90;;;;;;10432362;28;20037;-69
2021/12/14 15:32:16;;;;;;;12.43;7.03;;;10.00;99.90;;;;;;10441769;28;20029;-69
2021/12/14 15:37:38;;;;;;;16.02;8.55;;;10.10;99.90;;;;;;10432043;28;20120;-69
2021/12/14 15:42:42;;;;;;;15.13;8.02;;;10.00;99.90;;;;;;10435960;28;20033;-69
2021/12/14 15:48:03;;;;;;;16.42;8.32;;;10.00;99.90;;;;;;10430302;28;20031;-69
2021/12/14 15:53:36;;;;;;;15.27;7.32;;;10.00;99.90;;;;;;10426653;28;20033;-67
2021/12/14 15:58:40;;;;;;;17.80;8.70;;;10.00;99.90;;;;;;10407459;28;20045;-71
2021/12/14 16:03:41;;;;;;;15.52;9.10;;;10.00;99.90;;;;;;10436040;28;20029;-71
2021/12/14 16:08:44;;;;;;;16.23;8.65;;;10.00;99.90;;;;;;10415510;28;20308;-73
2021/12/14 16:19:08;;;;;;;15.73;8.48;;;10.00;99.90;;;;;;10431536;28;20124;-73
2021/12/14 16:24:13;;;;;;;16.70;8.13;;;10.00;99.90;;;;;;10426378;28;20038;-70
2021/12/14 16:29:13;;;;;;;16.27;8.02;;;10.00;99.90;;;;;;10425055;28;20120;-71
2021/12/14 16:34:17;;;;;;;15.60;8.30;;;10.10;99.90;;;;;;10433139;28;20426;-67
2021/12/14 16:39:28;;;;;;;15.95;8.75;;;10.00;99.90;;;;;;10437887;28;20465;-67
2021/12/14 16:44:37;;;;;;;14.95;8.65;;;10.00;99.90;;;;;;10435340;28;20079;-70
2021/12/14 16:49:41;;;;;;;16.15;7.72;;;10.00;99.90;;;;;;10423695;28;20022;-67
2021/12/14 16:54:45;;;;;;;16.33;8.50;;;10.00;99.90;;;;;;10429755;28;20094;-69
2021/12/14 16:59:50;;;;;;;21.17;9.27;;;10.00;99.90;;;;;;10434911;28;20017;-68
2021/12/14 17:04:54;;;;;;;23.42;10.25;;;10.00;99.90;;;;;;10426867;28;20037;-68
2021/12/14 17:09:55;;;;;;;22.20;10.40;;;10.10;99.90;;;;;;10430904;28;20029;-69
2021/12/14 17:15:02;;;;;;;20.90;9.65;;;10.00;99.90;;;;;;10433687;28;20566;-68
2021/12/14 17:20:11;;;;;;;23.27;10.50;;;10.00;99.90;;;;;;10498590;22;20379;-68
2021/12/14 17:25:18;;;;;;;24.17;11.23;;;10.00;99.90;;;;;;10440833;28;20029;-71
2021/12/14 17:42:30;;;;;;;23.17;10.80;;;10.00;99.90;;;;;;10564706;28;20087;-71
2021/12/14 17:47:37;;;;;;;19.80;10.02;;;10.00;99.90;;;;;;10555711;28;20052;-75
2021/12/14 17:52:41;;;;;;;19.85;9.35;;;10.10;99.90;;;;;;10569877;28;20043;-69
2021/12/14 17:58:21;;;;;;;20.50;10.10;;;10.10;99.90;;;;;;10558775;28;20666;-71
2021/12/14 18:04:25;;;;;;;21.98;10.70;;;10.10;99.90;;;;;;10564066;28;20516;-74
2021/12/14 18:10:28;;;;;;;22.58;9.25;;;10.20;99.90;;;;;;10561646;28;20032;-74
2021/12/14 18:16:36;;;;;;;19.65;9.75;;;10.20;99.90;;;;;;10563881;28;20074;-72
2021/12/14 18:22:36;;;;;;;21.20;9.68;;;10.20;99.90;;;;;;10560341;28;20061;-72
2021/12/14 18:28:33;;;;;;;19.05;9.57;;;10.20;99.90;;;;;;10565508;28;20066;-72
2021/12/14 18:34:33;;;;;;;25.50;10.75;;;10.20;99.90;;;;;;10564540;28;20053;-71
2021/12/14 18:40:35;;;;;;;20.65;9.23;;;10.20;99.90;;;;;;10549407;28;20036;-69
2021/12/14 18:46:03;;;;;;;19.02;8.60;;;10.30;99.90;;;;;;10553073;28;20078;-72
2021/12/14 18:51:04;;;;;;;20.20;8.52;;;9.90;99.90;;;;;;10556455;28;20468;-74
2021/12/14 18:56:09;;;;;;;17.45;7.90;;;10.20;99.90;;;;;;10548618;28;20079;-71
2021/12/14 19:01:52;;;;;;;16.80;8.60;;;10.20;99.90;;;;;;10547010;28;20085;-76
2021/12/14 19:06:55;;;;;;;21.73;8.85;;;10.20;99.90;;;;;;10560207;28;20122;-75
2021/12/14 19:12:02;;;;;;;16.58;8.05;;;10.20;99.90;;;;;;10567599;28;20559;-76
2021/12/14 19:17:06;;;;;;;19.23;9.57;;;10.20;99.90;;;;;;10542719;28;20175;-76
2021/12/14 19:22:12;;;;;;;16.67;8.38;;;10.20;99.90;;;;;;10567304;28;20500;-76
2021/12/14 19:27:25;;;;;;;17.20;8.60;;;10.20;99.90;;;;;;10558845;27;20381;-74
2021/12/14 19:32:29;;;;;;;15.80;8.35;;;10.20;99.90;;;;;;10546125;28;20028;-76
2021/12/14 19:37:35;;;;;;;14.98;8.25;;;10.20;99.90;;;;;;10556541;28;20035;-77
2021/12/14 19:42:35;;;;;;;18.88;9.00;;;10.20;99.90;;;;;;10524411;28;20066;-76
2021/12/14 19:47:38;;;;;;;19.23;9.60;;;10.30;99.90;;;;;;10522938;28;20086;-76
2021/12/14 19:52:45;;;;;;;19.13;8.82;;;10.20;99.90;;;;;;10520742;28;20117;-76
2021/12/14 19:57:52;;;;;;;22.25;9.20;;;10.40;99.90;;;;;;10507379;28;20045;-77
2021/12/14 20:02:57;;;;;;;15.48;8.15;;;10.20;99.90;;;;;;10509949;28;20032;-77
2021/12/14 20:08:20;;;;;;;17.95;8.25;;;10.20;99.90;;;;;;10523572;28;20141;-75
2021/12/14 20:13:21;;;;;;;16.92;8.68;;;10.70;99.90;;;;;;10518066;28;20060;-75
2021/12/14 20:18:43;;;;;;;16.48;8.52;;;10.30;99.90;;;;;;10503123;28;20093;-75
2021/12/14 20:23:51;;;;;;;17.35;8.25;;;10.30;99.90;;;;;;10523483;28;20024;-74
2021/12/14 20:29:16;;;;;;;19.77;8.73;;;10.30;99.90;;;;;;10506744;28;20037;-75
2021/12/14 20:34:25;;;;;;;17.73;8.57;;;10.30;99.90;;;;;;10511939;28;20032;-73
2021/12/14 20:39:30;;;;;;;17.40;8.25;;;10.30;99.90;;;;;;10518856;28;20048;-73
2021/12/14 20:44:48;;;;;;;17.15;8.00;;;10.30;99.90;;;;;;10560264;28;20028;-73
2021/12/14 20:49:50;;;;;;;16.00;8.23;;;10.30;99.90;;;;;;10560793;28;20031;-72
2021/12/14 20:54:58;;;;;;;19.38;8.07;;;10.30;99.90;;;;;;10574012;28;20051;-72
2021/12/14 21:00:09;;;;;;;17.63;8.15;;;10.30;99.90;;;;;;10557464;27;20040;-72
2021/12/14 21:05:10;;;;;;;15.55;8.43;;;10.30;99.90;;;;;;10573292;27;20122;-75
2021/12/14 21:10:18;;;;;;;18.50;8.63;;;10.30;99.90;;;;;;10571856;28;20390;-73
2021/12/14 21:15:23;;;;;;;16.65;8.32;;;10.30;99.90;;;;;;10542772;28;20085;-73
2021/12/14 21:20:30;;;;;;;17.65;8.02;;;10.30;99.90;;;;;;10545969;28;20024;-73
2021/12/14 21:25:36;;;;;;;17.08;7.85;;;10.30;99.90;;;;;;10543752;28;20047;-76
2021/12/14 21:30:43;;;;;;;13.95;7.50;;;10.40;99.90;;;;;;10541115;28;20138;-76
2021/12/14 21:35:46;;;;;;;15.68;8.27;;;10.30;99.90;;;;;;10541812;28;20079;-76
2021/12/14 21:40:58;;;;;;;17.30;8.18;;;10.30;99.90;;;;;;10537203;28;20816;-76
2021/12/14 21:51:48;;;;;;;18.80;8.43;;;10.30;99.90;;;;;;10537673;28;20028;-76
2021/12/14 21:56:49;;;;;;;18.67;8.27;;;10.30;99.90;;;;;;10545801;27;20466;-76
2021/12/14 22:01:50;;;;;;;13.57;7.20;;;10.30;99.90;;;;;;10539112;27;20485;-75
2021/12/14 22:06:51;;;;;;;15.07;7.68;;;10.30;99.90;;;;;;10536182;28;20050;-76
2021/12/14 22:11:58;;;;;;;16.50;8.05;;;10.30;99.90;;;;;;10531788;28;20024;-76
2021/12/14 22:17:06;;;;;;;14.18;7.88;;;10.30;99.90;;;;;;10542431;28;20193;-73
2021/12/14 22:22:09;;;;;;;16.45;7.82;;;10.80;99.90;;;;;;10570904;28;20027;-75
2021/12/14 22:27:12;;;;;;;17.85;8.25;;;10.30;99.90;;;;;;10561326;28;20481;-74
2021/12/14 22:32:13;;;;;;;16.85;8.10;;;10.50;99.90;;;;;;10566346;28;20518;-74
2021/12/14 22:37:17;;;;;;;16.15;8.15;;;10.30;99.90;;;;;;10548490;28;20048;-75
2021/12/14 22:42:33;;;;;;;12.95;6.85;;;10.30;99.90;;;;;;10524862;28;20043;-74
2021/12/14 22:47:34;;;;;;;15.32;8.35;;;10.30;99.90;;;;;;10537930;28;20048;-74
2021/12/14 22:52:35;;;;;;;17.50;8.15;;;10.30;99.90;;;;;;10522415;28;20085;-74
2021/12/14 22:57:39;;;;;;;15.93;7.68;;;10.30;99.90;;;;;;10538342;28;20052;-74
2021/12/14 23:02:40;;;;;;;14.73;7.60;;;10.30;99.90;;;;;;10533092;28;20028;-73
2021/12/14 23:07:42;;;;;;;17.15;8.13;;;10.50;99.90;;;;;;10559615;28;20093;-73
2021/12/14 23:12:47;;;;;;;14.27;7.60;;;10.30;99.90;;;;;;10567438;28;20035;-73
2021/12/14 23:18:07;;;;;;;15.60;8.20;;;10.40;99.90;;;;;;10563628;28;20401;-73
2021/12/14 23:23:09;;;;;;;15.75;8.30;;;10.40;99.90;;;;;;10562152;28;20050;-74
2021/12/14 23:28:10;;;;;;;17.80;8.05;;;10.50;99.90;;;;;;10542529;28;20107;-73
2021/12/14 23:33:13;;;;;;;18.67;8.73;;;10.30;99.90;;;;;;10529832;28;20470;-74
2021/12/14 23:38:15;;;;;;;14.60;7.75;;;10.40;99.90;;;;;;10529281;28;20047;-74
2021/12/14 23:43:17;;;;;;;17.20;8.00;;;10.30;99.90;;;;;;10529063;28;20055;-74
2021/12/14 23:48:18;;;;;;;17.17;7.90;;;10.40;99.90;;;;;;10527271;28;20394;-74
2021/12/14 23:53:19;;;;;;;18.73;8.57;;;10.40;99.90;;;;;;10527797;28;20027;-74
2021/12/14 23:58:19;;;;;;;14.15;8.20;;;10.40;99.90;;;;;;10528734;28;20074;-74
